createdAt,value
2019-02-10T00:00:21.387Z,97.27
2019-02-10T00:01:21.401Z,97.36
2019-02-10T00:02:21.414Z,97.92
2019-02-10T00:03:21.430Z,97.83
2019-02-10T00:04:21.446Z,98.02
2019-02-10T00:05:21.467Z,98.12
2019-02-10T00:06:27.210Z,97.92
2019-02-10T00:08:21.513Z,98.31
2019-02-10T00:09:21.527Z,98.69
2019-02-10T00:10:36.205Z,99.07
2019-02-10T00:11:21.557Z,98.97
2019-02-10T00:12:21.574Z,98.88
2019-02-10T00:13:21.589Z,98.97
2019-02-10T00:14:21.603Z,99.07
2019-02-10T00:15:21.622Z,99.07
2019-02-10T00:16:21.638Z,99.44
2019-02-10T00:17:21.653Z,99.83
2019-02-10T00:18:21.669Z,99.92
2019-02-10T00:19:21.683Z,99.99
2019-02-10T00:20:21.754Z,99.83
2019-02-10T00:21:21.714Z,99.99
2019-02-10T00:22:21.733Z,99.99
2019-02-10T00:23:21.747Z,99.83
2019-02-10T00:25:21.779Z,99.99
2019-02-10T00:26:36.457Z,99.64
2019-02-10T00:27:21.813Z,99.92
2019-02-10T00:28:21.823Z,99.83
2019-02-10T00:29:21.839Z,99.99
2019-02-10T00:30:21.855Z,99.99
2019-02-10T00:31:21.874Z,99.92
2019-02-10T00:32:22.054Z,99.99
2019-02-10T00:33:21.905Z,99.99
2019-02-10T00:34:21.918Z,99.99
2019-02-10T00:35:21.933Z,99.99
2019-02-10T00:36:21.948Z,99.99
2019-02-10T00:37:21.965Z,99.99
2019-02-10T00:40:22.012Z,99.99
2019-02-10T00:41:22.028Z,99.99
2019-02-10T00:42:36.706Z,99.99
2019-02-10T00:43:22.057Z,99.99
2019-02-10T00:44:22.073Z,99.99
2019-02-10T00:45:22.089Z,99.99
2019-02-10T00:46:22.104Z,99.99
2019-02-10T00:47:22.121Z,99.99
2019-02-10T00:48:22.135Z,99.99
2019-02-10T00:49:22.151Z,99.99
2019-02-10T00:50:22.169Z,99.99
2019-02-10T00:51:22.184Z,99.99
2019-02-10T00:52:22.198Z,99.99
2019-02-10T00:53:22.213Z,99.99
2019-02-10T00:54:22.231Z,99.99
2019-02-10T00:56:22.260Z,99.99
2019-02-10T00:57:22.275Z,99.99
2019-02-10T00:58:36.960Z,99.99
2019-02-10T00:59:22.307Z,99.99
2019-02-10T01:00:22.323Z,99.99
2019-02-10T01:01:22.341Z,99.99
2019-02-10T01:02:22.357Z,99.99
2019-02-10T01:03:22.369Z,99.99
2019-02-10T01:04:22.387Z,99.99
2019-02-10T01:06:22.418Z,99.99
2019-02-10T01:07:22.432Z,99.99
2019-02-10T01:08:22.446Z,99.99
2019-02-10T01:09:22.467Z,99.99
2019-02-10T01:10:22.477Z,99.99
2019-02-10T01:11:22.494Z,99.99
2019-02-10T01:12:22.511Z,99.99
2019-02-10T01:13:37.189Z,99.99
2019-02-10T01:14:22.551Z,99.99
2019-02-10T01:15:22.560Z,99.99
2019-02-10T01:16:22.574Z,99.99
2019-02-10T01:18:22.604Z,99.99
2019-02-10T01:19:22.620Z,99.99
2019-02-10T01:20:22.633Z,99.99
2019-02-10T01:21:22.652Z,99.99
2019-02-10T01:22:22.665Z,99.99
2019-02-10T01:23:22.685Z,99.99
2019-02-10T01:24:22.699Z,99.99
2019-02-10T01:26:22.726Z,99.99
2019-02-10T01:27:22.743Z,99.99
2019-02-10T01:28:22.759Z,99.99
2019-02-10T01:29:22.776Z,99.99
2019-02-10T01:30:22.792Z,99.99
2019-02-10T01:31:22.805Z,99.99
2019-02-10T01:32:22.821Z,99.99
2019-02-10T01:33:22.835Z,99.99
2019-02-10T01:34:22.853Z,99.99
2019-02-10T01:35:22.870Z,99.99
2019-02-10T01:36:22.883Z,99.99
2019-02-10T01:38:22.950Z,99.99
2019-02-10T01:39:22.929Z,99.99
2019-02-10T01:40:22.951Z,99.99
2019-02-10T01:41:22.960Z,99.99
2019-02-10T01:43:22.992Z,99.99
2019-02-10T01:44:23.007Z,99.99
2019-02-10T01:45:37.684Z,99.99
2019-02-10T01:46:23.036Z,99.99
2019-02-10T01:47:23.053Z,99.99
2019-02-10T01:48:23.085Z,99.99
2019-02-10T01:49:23.084Z,99.99
2019-02-10T01:50:23.101Z,99.99
2019-02-10T01:51:24.118Z,99.99
2019-02-10T01:52:23.130Z,99.99
2019-02-10T01:53:23.145Z,99.99
2019-02-10T01:54:23.161Z,99.99
2019-02-10T01:55:23.174Z,99.99
2019-02-10T01:56:23.194Z,99.99
2019-02-10T01:58:23.223Z,99.99
2019-02-10T01:59:23.236Z,99.99
2019-02-10T02:00:23.251Z,99.99
2019-02-10T02:01:37.930Z,99.99
2019-02-10T02:02:23.284Z,99.99
2019-02-10T02:03:23.296Z,99.99
2019-02-10T02:04:23.311Z,99.99
2019-02-10T02:05:23.327Z,99.99
2019-02-10T02:06:23.383Z,99.99
2019-02-10T02:07:23.360Z,99.99
2019-02-10T02:08:23.378Z,99.99
2019-02-10T02:09:23.388Z,99.99
2019-02-10T02:10:23.402Z,99.99
2019-02-10T02:11:23.418Z,99.99
2019-02-10T02:12:23.434Z,99.99
2019-02-10T02:14:23.463Z,99.99
2019-02-10T02:15:23.480Z,99.99
2019-02-10T02:16:23.494Z,99.99
2019-02-10T02:17:38.174Z,99.99
2019-02-10T02:18:23.524Z,99.99
2019-02-10T02:19:23.548Z,99.99
2019-02-10T02:20:23.555Z,99.99
2019-02-10T02:21:23.572Z,99.99
2019-02-10T02:22:23.587Z,99.99
2019-02-10T02:23:23.600Z,99.99
2019-02-10T02:25:23.629Z,99.99
2019-02-10T02:26:23.653Z,99.99
2019-02-10T02:27:23.661Z,99.99
2019-02-10T02:29:23.693Z,99.99
2019-02-10T02:30:23.711Z,99.99
2019-02-10T02:31:23.721Z,99.99
2019-02-10T02:32:23.738Z,99.99
2019-02-10T02:33:38.415Z,99.99
2019-02-10T02:34:23.765Z,99.99
2019-02-10T02:35:23.780Z,99.99
2019-02-10T02:36:23.795Z,99.99
2019-02-10T02:37:23.809Z,99.99
2019-02-10T02:38:23.829Z,99.99
2019-02-10T02:39:23.839Z,99.99
2019-02-10T02:40:23.855Z,99.99
2019-02-10T02:41:23.868Z,99.99
2019-02-10T02:42:23.887Z,99.99
2019-02-10T02:43:23.655Z,99.99
2019-02-10T02:44:23.931Z,99.99
2019-02-10T02:45:23.939Z,99.99
2019-02-10T02:46:23.950Z,99.99
2019-02-10T02:47:23.963Z,99.99
2019-02-10T02:48:38.639Z,99.99
2019-02-10T02:49:23.990Z,99.99
2019-02-10T02:50:24.009Z,99.99
2019-02-10T02:51:24.093Z,99.99
2019-02-10T02:52:24.039Z,99.99
2019-02-10T02:53:24.050Z,99.99
2019-02-10T02:54:24.069Z,99.99
2019-02-10T02:55:24.080Z,99.99
2019-02-10T02:56:24.097Z,99.99
2019-02-10T02:57:24.163Z,99.99
2019-02-10T02:58:24.131Z,99.99
2019-02-10T03:01:24.171Z,99.99
2019-02-10T03:02:24.193Z,99.99
2019-02-10T03:03:24.202Z,99.99
2019-02-10T03:04:24.216Z,99.99
2019-02-10T03:05:24.245Z,99.99
2019-02-10T03:06:24.246Z,99.99
2019-02-10T03:07:24.264Z,99.99
2019-02-10T03:08:24.379Z,99.99
2019-02-10T03:09:24.296Z,99.99
2019-02-10T03:10:24.308Z,99.99
2019-02-10T03:11:24.324Z,99.99
2019-02-10T03:12:24.345Z,99.99
2019-02-10T03:13:24.357Z,99.99
2019-02-10T03:15:24.384Z,99.99
2019-02-10T03:16:24.393Z,99.99
2019-02-10T03:18:24.473Z,99.99
2019-02-10T03:19:24.439Z,99.99
2019-02-10T03:20:39.117Z,99.99
2019-02-10T03:21:24.225Z,99.99
2019-02-10T03:22:24.486Z,99.99
2019-02-10T03:23:24.500Z,99.99
2019-02-10T03:24:24.571Z,99.99
2019-02-10T03:25:24.539Z,99.99
2019-02-10T03:26:24.544Z,99.99
2019-02-10T03:27:24.588Z,99.99
2019-02-10T03:29:24.690Z,99.99
2019-02-10T03:30:24.612Z,99.99
2019-02-10T03:31:24.632Z,99.99
2019-02-10T03:32:24.656Z,99.99
2019-02-10T03:33:24.653Z,99.99
2019-02-10T03:34:24.664Z,99.99
2019-02-10T03:35:24.679Z,99.99
2019-02-10T03:36:39.357Z,99.99
2019-02-10T03:37:29.687Z,99.99
2019-02-10T03:38:24.723Z,99.99
2019-02-10T03:39:24.747Z,99.99
2019-02-10T03:40:24.753Z,99.99
2019-02-10T03:41:24.767Z,99.99
2019-02-10T03:42:24.791Z,99.99
2019-02-10T03:43:24.802Z,99.99
2019-02-10T03:44:24.817Z,99.99
2019-02-10T03:45:24.830Z,99.99
2019-02-10T03:46:24.840Z,99.99
2019-02-10T03:47:24.867Z,99.99
2019-02-10T03:48:24.871Z,99.99
2019-02-10T03:49:24.895Z,99.99
2019-02-10T03:50:24.900Z,99.99
2019-02-10T03:51:24.937Z,99.99
2019-02-10T03:52:39.692Z,99.99
2019-02-10T03:53:24.950Z,99.99
2019-02-10T03:54:25.012Z,99.99
2019-02-10T03:55:24.978Z,99.99
2019-02-10T03:56:25.012Z,99.99
2019-02-10T03:57:25.012Z,99.99
2019-02-10T03:58:25.019Z,99.99
2019-02-10T03:59:25.032Z,99.99
2019-02-10T04:00:25.048Z,99.99
2019-02-10T04:01:25.063Z,99.99
2019-02-10T04:02:25.078Z,99.99
2019-02-10T04:04:25.125Z,99.99
2019-02-10T04:05:25.125Z,99.99
2019-02-10T04:06:25.135Z,99.99
2019-02-10T04:07:25.250Z,99.99
2019-02-10T04:08:39.828Z,99.99
2019-02-10T04:09:25.317Z,99.99
2019-02-10T04:10:25.196Z,99.99
2019-02-10T04:11:25.209Z,99.99
2019-02-10T04:12:25.223Z,99.99
2019-02-10T04:13:25.239Z,99.99
2019-02-10T04:14:25.253Z,99.99
2019-02-10T04:16:25.283Z,99.99
2019-02-10T04:17:25.301Z,99.99
2019-02-10T04:18:25.310Z,99.99
2019-02-10T04:19:25.325Z,99.99
2019-02-10T04:20:25.344Z,99.99
2019-02-10T04:21:25.377Z,99.99
2019-02-10T04:22:25.377Z,99.99
2019-02-10T04:23:40.049Z,99.99
2019-02-10T04:25:25.414Z,99.99
2019-02-10T04:26:25.429Z,99.99
2019-02-10T04:27:25.447Z,99.99
2019-02-10T04:28:25.464Z,99.99
2019-02-10T04:29:25.478Z,99.99
2019-02-10T04:31:25.503Z,99.99
2019-02-10T04:32:25.524Z,99.99
2019-02-10T04:33:25.634Z,99.99
2019-02-10T04:35:25.561Z,99.99
2019-02-10T04:36:25.589Z,99.99
2019-02-10T04:37:25.593Z,99.99
2019-02-10T04:38:25.606Z,99.99
2019-02-10T04:39:25.621Z,99.99
2019-02-10T04:40:25.633Z,99.99
2019-02-10T04:41:25.649Z,99.99
2019-02-10T04:42:25.670Z,99.99
2019-02-10T04:43:25.677Z,99.99
2019-02-10T04:44:25.693Z,99.99
2019-02-10T04:45:25.808Z,99.99
2019-02-10T04:46:25.725Z,99.99
2019-02-10T04:47:25.735Z,99.99
2019-02-10T04:48:25.752Z,99.99
2019-02-10T04:49:25.770Z,99.99
2019-02-10T04:51:25.792Z,99.99
2019-02-10T04:52:25.806Z,99.99
2019-02-10T04:53:25.823Z,99.99
2019-02-10T04:54:25.840Z,99.99
2019-02-10T04:55:40.527Z,99.99
2019-02-10T04:56:25.866Z,99.99
2019-02-10T04:57:25.883Z,99.99
2019-02-10T04:58:25.896Z,99.99
2019-02-10T04:59:25.925Z,99.99
2019-02-10T05:00:25.926Z,99.99
2019-02-10T05:01:25.937Z,99.99
2019-02-10T05:02:25.955Z,99.99
2019-02-10T05:03:25.972Z,99.99
2019-02-10T05:04:25.982Z,99.99
2019-02-10T05:05:26.013Z,99.99
2019-02-10T05:06:26.011Z,99.99
2019-02-10T05:07:26.027Z,99.99
2019-02-10T05:08:26.040Z,99.99
2019-02-10T05:09:26.068Z,99.99
2019-02-10T05:10:26.068Z,99.99
2019-02-10T05:11:40.747Z,99.99
2019-02-10T05:12:26.110Z,99.99
2019-02-10T05:13:26.113Z,99.99
2019-02-10T05:14:26.130Z,99.99
2019-02-10T05:15:26.142Z,99.99
2019-02-10T05:16:26.170Z,99.99
2019-02-10T05:17:26.172Z,99.99
2019-02-10T05:18:26.195Z,99.99
2019-02-10T05:19:26.300Z,99.99
2019-02-10T05:20:26.215Z,99.99
2019-02-10T05:22:26.243Z,99.99
2019-02-10T05:23:26.260Z,99.99
2019-02-10T05:24:26.286Z,99.99
2019-02-10T05:25:26.290Z,99.99
2019-02-10T05:26:26.304Z,99.99
2019-02-10T05:27:40.981Z,99.99
2019-02-10T05:28:26.337Z,99.99
2019-02-10T05:29:26.345Z,99.99
2019-02-10T05:30:26.359Z,99.99
2019-02-10T05:31:26.374Z,99.99
2019-02-10T05:32:26.388Z,99.99
2019-02-10T05:33:26.401Z,99.99
2019-02-10T05:34:26.419Z,99.99
2019-02-10T05:35:26.433Z,99.99
2019-02-10T05:36:26.447Z,99.99
2019-02-10T05:37:26.468Z,99.99
2019-02-10T05:38:26.477Z,99.99
2019-02-10T05:39:26.488Z,99.99
2019-02-10T05:41:26.518Z,99.99
2019-02-10T05:42:26.529Z,99.99
2019-02-10T05:43:41.208Z,99.99
2019-02-10T05:44:26.564Z,99.99
2019-02-10T05:45:26.576Z,99.99
2019-02-10T05:47:26.607Z,99.99
2019-02-10T05:48:26.619Z,99.99
2019-02-10T05:49:26.638Z,99.99
2019-02-10T05:50:26.649Z,99.99
2019-02-10T05:51:26.660Z,99.99
2019-02-10T05:52:26.676Z,99.99
2019-02-10T05:53:26.690Z,99.99
2019-02-10T05:54:26.707Z,99.99
2019-02-10T05:55:26.722Z,99.99
2019-02-10T05:56:26.738Z,99.99
2019-02-10T05:57:26.749Z,99.99
2019-02-10T05:58:41.426Z,99.99
2019-02-10T05:59:26.791Z,99.99
2019-02-10T06:00:26.793Z,99.99
2019-02-10T06:01:26.807Z,99.99
2019-02-10T06:02:26.825Z,99.99
2019-02-10T06:03:26.835Z,99.99
2019-02-10T06:04:26.880Z,99.99
2019-02-10T06:05:26.867Z,99.99
2019-02-10T06:06:26.879Z,99.99
2019-02-10T06:07:26.898Z,99.99
2019-02-10T06:08:26.911Z,99.99
2019-02-10T06:09:26.939Z,99.99
2019-02-10T06:10:26.937Z,99.99
2019-02-10T06:12:26.968Z,99.99
2019-02-10T06:13:26.981Z,99.99
2019-02-10T06:14:27.003Z,99.99
2019-02-10T06:15:27.008Z,99.99
2019-02-10T06:16:27.026Z,99.99
2019-02-10T06:17:27.079Z,99.99
2019-02-10T06:18:27.060Z,99.99
2019-02-10T06:19:27.066Z,99.99
2019-02-10T06:20:27.095Z,99.99
2019-02-10T06:21:27.099Z,99.99
2019-02-10T06:22:27.110Z,99.99
2019-02-10T06:23:27.125Z,99.99
2019-02-10T06:24:27.141Z,99.99
2019-02-10T06:25:27.177Z,99.99
2019-02-10T06:27:27.187Z,99.99
2019-02-10T06:28:27.206Z,99.99
2019-02-10T06:29:27.216Z,99.99
2019-02-10T06:30:41.890Z,99.99
2019-02-10T06:31:27.242Z,99.99
2019-02-10T06:32:27.266Z,99.99
2019-02-10T06:33:27.279Z,99.99
2019-02-10T06:34:27.289Z,99.99
2019-02-10T06:35:27.301Z,99.99
2019-02-10T06:36:27.334Z,99.99
2019-02-10T06:37:27.434Z,99.99
2019-02-10T06:38:27.351Z,99.99
2019-02-10T06:39:27.385Z,99.99
2019-02-10T06:40:27.376Z,99.99
2019-02-10T06:41:27.390Z,99.99
2019-02-10T06:42:27.406Z,99.99
2019-02-10T06:44:27.433Z,99.99
2019-02-10T06:45:27.445Z,99.99
2019-02-10T06:46:42.125Z,99.99
2019-02-10T06:47:27.476Z,99.99
2019-02-10T06:48:27.490Z,99.99
2019-02-10T06:49:27.505Z,99.99
2019-02-10T06:50:27.523Z,99.99
2019-02-10T06:51:27.534Z,99.99
2019-02-10T06:52:27.549Z,99.99
2019-02-10T06:53:27.564Z,99.99
2019-02-10T06:54:27.585Z,99.99
2019-02-10T06:55:27.592Z,99.99
2019-02-10T06:56:27.609Z,99.99
2019-02-10T06:57:27.627Z,99.99
2019-02-10T06:58:27.648Z,99.99
2019-02-10T06:59:27.651Z,99.99
2019-02-10T07:00:27.417Z,99.99
2019-02-10T07:01:27.681Z,99.99
2019-02-10T07:02:42.359Z,99.99
2019-02-10T07:03:27.710Z,99.99
2019-02-10T07:04:27.726Z,99.99
2019-02-10T07:05:27.740Z,99.99
2019-02-10T07:06:27.755Z,99.99
2019-02-10T07:07:27.770Z,99.99
2019-02-10T07:08:33.071Z,99.99
2019-02-10T07:09:27.819Z,99.99
2019-02-10T07:10:27.814Z,99.99
2019-02-10T07:11:27.832Z,99.99
2019-02-10T07:12:27.844Z,99.99
2019-02-10T07:13:27.859Z,99.99
2019-02-10T07:14:27.901Z,99.99
2019-02-10T07:16:27.905Z,99.99
2019-02-10T07:17:27.918Z,99.99
2019-02-10T07:18:42.596Z,99.99
2019-02-10T07:20:27.963Z,99.99
2019-02-10T07:21:28.746Z,99.99
2019-02-10T07:22:27.997Z,99.99
2019-02-10T07:23:28.009Z,99.99
2019-02-10T07:24:28.025Z,99.99
2019-02-10T07:25:28.038Z,99.99
2019-02-10T07:26:28.053Z,99.99
2019-02-10T07:27:28.073Z,99.99
2019-02-10T07:28:28.082Z,99.99
2019-02-10T07:29:28.096Z,99.99
2019-02-10T07:30:28.112Z,99.99
2019-02-10T07:32:28.146Z,99.99
2019-02-10T07:33:42.822Z,99.99
2019-02-10T07:34:28.173Z,99.99
2019-02-10T07:35:28.193Z,99.99
2019-02-10T07:36:28.204Z,99.99
2019-02-10T07:37:28.220Z,99.99
2019-02-10T07:38:28.238Z,99.99
2019-02-10T07:39:28.248Z,99.99
2019-02-10T07:40:28.262Z,99.99
2019-02-10T07:41:28.288Z,99.99
2019-02-10T07:42:28.293Z,99.99
2019-02-10T07:43:28.315Z,99.99
2019-02-10T07:44:28.330Z,99.99
2019-02-10T07:45:28.339Z,99.99
2019-02-10T07:46:28.358Z,99.99
2019-02-10T07:47:28.380Z,99.99
2019-02-10T07:48:28.385Z,99.99
2019-02-10T07:49:28.402Z,99.99
2019-02-10T07:50:28.171Z,99.99
2019-02-10T07:51:28.430Z,99.99
2019-02-10T07:52:28.446Z,99.99
2019-02-10T07:53:28.460Z,99.99
2019-02-10T07:54:28.521Z,99.99
2019-02-10T07:55:28.490Z,99.99
2019-02-10T07:56:28.839Z,99.99
2019-02-10T07:57:28.521Z,99.99
2019-02-10T07:58:28.535Z,99.99
2019-02-10T07:59:28.552Z,99.99
2019-02-10T08:00:28.567Z,99.99
2019-02-10T08:01:28.584Z,99.99
2019-02-10T08:03:28.642Z,99.99
2019-02-10T08:04:28.732Z,99.99
2019-02-10T08:05:43.306Z,99.99
2019-02-10T08:06:28.660Z,99.99
2019-02-10T08:07:28.673Z,99.99
2019-02-10T08:08:29.111Z,99.99
2019-02-10T08:09:28.706Z,99.99
2019-02-10T08:10:28.724Z,99.99
2019-02-10T08:11:28.737Z,99.99
2019-02-10T08:12:28.749Z,99.99
2019-02-10T08:13:28.765Z,99.99
2019-02-10T08:14:28.781Z,99.99
2019-02-10T08:15:28.795Z,99.99
2019-02-10T08:16:28.812Z,99.99
2019-02-10T08:17:28.826Z,99.99
2019-02-10T08:19:28.959Z,99.99
2019-02-10T08:20:28.876Z,99.99
2019-02-10T08:21:43.552Z,99.99
2019-02-10T08:22:28.903Z,99.99
2019-02-10T08:23:28.922Z,99.99
2019-02-10T08:24:28.934Z,99.99
2019-02-10T08:25:28.953Z,99.99
2019-02-10T08:26:28.964Z,99.99
2019-02-10T08:27:29.097Z,99.99
2019-02-10T08:28:29.003Z,99.99
2019-02-10T08:29:29.011Z,99.99
2019-02-10T08:30:29.027Z,99.99
2019-02-10T08:31:29.044Z,99.99
2019-02-10T08:32:29.103Z,99.99
2019-02-10T08:33:29.079Z,99.99
2019-02-10T08:34:29.091Z,99.99
2019-02-10T08:35:29.861Z,99.99
2019-02-10T08:36:29.123Z,99.99
2019-02-10T08:37:43.798Z,99.99
2019-02-10T08:38:29.150Z,99.99
2019-02-10T08:39:29.166Z,99.99
2019-02-10T08:40:29.190Z,99.99
2019-02-10T08:41:29.198Z,99.99
2019-02-10T08:42:29.215Z,99.99
2019-02-10T08:43:29.227Z,99.99
2019-02-10T08:44:29.245Z,99.99
2019-02-10T08:45:29.258Z,99.99
2019-02-10T08:46:29.277Z,99.99
2019-02-10T08:47:36.125Z,99.99
2019-02-10T08:48:29.309Z,99.99
2019-02-10T08:49:29.327Z,99.99
2019-02-10T08:51:29.353Z,99.99
2019-02-10T08:52:29.372Z,99.99
2019-02-10T08:53:44.096Z,99.99
2019-02-10T08:54:29.400Z,99.99
2019-02-10T08:55:29.414Z,99.99
2019-02-10T08:56:29.427Z,99.99
2019-02-10T08:57:29.444Z,99.99
2019-02-10T08:58:29.460Z,99.99
2019-02-10T08:59:29.475Z,99.99
2019-02-10T09:00:29.492Z,99.99
2019-02-10T09:01:29.512Z,99.99
2019-02-10T09:02:29.522Z,99.99
2019-02-10T09:03:29.537Z,99.99
2019-02-10T09:05:29.572Z,99.99
2019-02-10T09:06:29.584Z,99.99
2019-02-10T09:07:29.612Z,99.99
2019-02-10T09:08:44.282Z,99.99
2019-02-10T09:09:29.631Z,99.99
2019-02-10T09:10:29.667Z,99.99
2019-02-10T09:11:29.663Z,99.99
2019-02-10T09:12:29.686Z,99.99
2019-02-10T09:13:29.701Z,99.99
2019-02-10T09:14:29.710Z,99.99
2019-02-10T09:15:29.771Z,99.99
2019-02-10T09:16:29.496Z,99.99
2019-02-10T09:17:29.860Z,99.99
2019-02-10T09:18:29.874Z,99.99
2019-02-10T09:19:29.784Z,99.99
2019-02-10T09:20:29.814Z,99.99
2019-02-10T09:21:29.813Z,99.99
2019-02-10T09:22:29.830Z,99.99
2019-02-10T09:23:29.844Z,99.99
2019-02-10T09:24:29.859Z,99.99
2019-02-10T09:25:29.873Z,99.99
2019-02-10T09:26:29.887Z,99.99
2019-02-10T09:27:29.909Z,99.99
2019-02-10T09:28:29.926Z,99.99
2019-02-10T09:29:29.933Z,99.99
2019-02-10T09:30:29.953Z,99.99
2019-02-10T09:31:29.965Z,99.99
2019-02-10T09:32:29.978Z,99.99
2019-02-10T09:33:29.993Z,99.99
2019-02-10T09:34:30.009Z,99.99
2019-02-10T09:35:30.023Z,99.99
2019-02-10T09:36:30.043Z,99.99
2019-02-10T09:37:30.059Z,99.99
2019-02-10T09:38:30.073Z,99.99
2019-02-10T09:39:30.083Z,99.99
2019-02-10T09:40:44.761Z,99.99
2019-02-10T09:41:30.115Z,99.99
2019-02-10T09:42:30.129Z,99.99
2019-02-10T09:43:30.141Z,99.99
2019-02-10T09:44:30.163Z,99.99
2019-02-10T09:45:30.173Z,99.99
2019-02-10T09:46:30.188Z,99.99
2019-02-10T09:47:30.203Z,99.99
2019-02-10T09:48:30.218Z,99.99
2019-02-10T09:49:30.233Z,99.99
2019-02-10T09:50:30.249Z,99.99
2019-02-10T09:51:30.261Z,99.99
2019-02-10T09:52:30.278Z,99.99
2019-02-10T09:53:30.295Z,99.99
2019-02-10T09:55:30.321Z,99.99
2019-02-10T09:56:44.999Z,99.99
2019-02-10T09:57:30.355Z,99.99
2019-02-10T09:58:30.365Z,99.99
2019-02-10T09:59:30.381Z,99.99
2019-02-10T10:00:30.395Z,99.99
2019-02-10T10:01:30.410Z,99.99
2019-02-10T10:02:30.425Z,99.99
2019-02-10T10:03:30.439Z,99.99
2019-02-10T10:04:30.457Z,99.99
2019-02-10T10:05:30.469Z,99.99
2019-02-10T10:06:30.536Z,99.99
2019-02-10T10:07:30.498Z,99.99
2019-02-10T10:08:30.514Z,99.99
2019-02-10T10:09:30.537Z,99.99
2019-02-10T10:10:30.548Z,99.99
2019-02-10T10:11:30.558Z,99.99
2019-02-10T10:12:45.236Z,99.99
2019-02-10T10:13:30.604Z,99.99
2019-02-10T10:14:33.433Z,99.99
2019-02-10T10:15:30.620Z,99.99
2019-02-10T10:16:30.632Z,99.99
2019-02-10T10:17:30.687Z,99.99
2019-02-10T10:18:30.662Z,99.99
2019-02-10T10:19:30.677Z,99.99
2019-02-10T10:20:30.691Z,99.99
2019-02-10T10:21:30.712Z,99.99
2019-02-10T10:23:30.740Z,99.99
2019-02-10T10:24:30.753Z,99.99
2019-02-10T10:25:30.765Z,99.99
2019-02-10T10:26:30.780Z,99.99
2019-02-10T10:27:30.796Z,99.99
2019-02-10T10:28:45.473Z,99.99
2019-02-10T10:29:30.826Z,99.99
2019-02-10T10:30:30.840Z,99.99
2019-02-10T10:31:30.862Z,99.99
2019-02-10T10:32:30.879Z,99.99
2019-02-10T10:33:31.928Z,99.99
2019-02-10T10:34:30.900Z,99.99
2019-02-10T10:35:30.917Z,99.99
2019-02-10T10:36:30.931Z,99.99
2019-02-10T10:37:30.946Z,99.99
2019-02-10T10:38:30.959Z,99.99
2019-02-10T10:40:31.006Z,99.99
2019-02-10T10:41:31.011Z,99.99
2019-02-10T10:42:31.020Z,99.99
2019-02-10T10:43:45.698Z,99.99
2019-02-10T10:44:31.051Z,99.99
2019-02-10T10:45:31.065Z,99.99
2019-02-10T10:46:31.089Z,99.99
2019-02-10T10:47:31.100Z,99.99
2019-02-10T10:48:31.210Z,99.99
2019-02-10T10:49:31.125Z,99.99
2019-02-10T10:50:31.140Z,99.99
2019-02-10T10:51:31.155Z,99.99
2019-02-10T10:52:31.169Z,99.99
2019-02-10T10:53:31.185Z,99.99
2019-02-10T10:54:31.199Z,99.99
2019-02-10T10:55:31.217Z,99.99
2019-02-10T10:57:31.243Z,99.99
2019-02-10T10:58:31.259Z,99.99
2019-02-10T10:59:31.275Z,99.99
2019-02-10T11:00:31.289Z,99.99
2019-02-10T11:01:31.304Z,99.99
2019-02-10T11:02:31.319Z,99.99
2019-02-10T11:03:31.334Z,99.99
2019-02-10T11:04:31.362Z,99.99
2019-02-10T11:05:31.364Z,99.99
2019-02-10T11:06:31.386Z,99.99
2019-02-10T11:07:31.396Z,99.99
2019-02-10T11:08:31.409Z,99.99
2019-02-10T11:09:37.925Z,99.99
2019-02-10T11:10:31.446Z,99.99
2019-02-10T11:11:31.455Z,99.99
2019-02-10T11:12:31.468Z,99.99
2019-02-10T11:13:31.484Z,99.99
2019-02-10T11:14:31.498Z,99.99
2019-02-10T11:15:46.177Z,99.99
2019-02-10T11:16:31.530Z,99.99
2019-02-10T11:17:31.544Z,99.99
2019-02-10T11:18:31.558Z,99.99
2019-02-10T11:19:31.574Z,99.99
2019-02-10T11:20:31.589Z,99.99
2019-02-10T11:21:31.608Z,99.99
2019-02-10T11:22:31.621Z,99.99
2019-02-10T11:23:31.634Z,99.99
2019-02-10T11:24:31.652Z,99.99
2019-02-10T11:25:31.668Z,99.99
2019-02-10T11:26:31.679Z,99.99
2019-02-10T11:27:31.694Z,99.99
2019-02-10T11:28:31.716Z,99.99
2019-02-10T11:30:31.741Z,99.99
2019-02-10T11:31:46.417Z,99.99
2019-02-10T11:32:31.771Z,99.99
2019-02-10T11:33:31.787Z,99.99
2019-02-10T11:34:31.798Z,99.99
2019-02-10T11:35:31.815Z,99.99
2019-02-10T11:36:31.833Z,99.99
2019-02-10T11:37:33.532Z,99.99
2019-02-10T11:38:31.860Z,99.99
2019-02-10T11:39:31.875Z,99.99
2019-02-10T11:40:31.889Z,99.99
2019-02-10T11:41:31.907Z,99.99
2019-02-10T11:42:31.919Z,99.99
2019-02-10T11:43:31.935Z,99.99
2019-02-10T11:45:31.965Z,99.99
2019-02-10T11:46:32.030Z,99.99
2019-02-10T11:47:46.657Z,99.99
2019-02-10T11:48:32.008Z,99.99
2019-02-10T11:49:32.024Z,99.99
2019-02-10T11:50:32.039Z,99.99
2019-02-10T11:51:32.057Z,99.99
2019-02-10T11:52:32.075Z,99.99
2019-02-10T11:53:32.096Z,99.99
2019-02-10T11:54:32.104Z,99.99
2019-02-10T11:55:32.114Z,99.99
2019-02-10T11:56:32.132Z,99.99
2019-02-10T11:57:32.146Z,99.99
2019-02-10T11:58:32.159Z,99.99
2019-02-10T11:59:32.176Z,99.99
2019-02-10T12:00:32.190Z,99.99
2019-02-10T12:01:32.209Z,99.99
2019-02-10T12:02:40.210Z,99.99
2019-02-10T12:03:46.899Z,99.99
2019-02-10T12:04:32.254Z,99.99
2019-02-10T12:05:32.267Z,99.99
2019-02-10T12:06:32.283Z,99.99
2019-02-10T12:07:32.298Z,99.99
2019-02-10T12:08:38.197Z,99.99
2019-02-10T12:09:32.348Z,99.99
2019-02-10T12:10:32.343Z,99.99
2019-02-10T12:11:32.358Z,99.99
2019-02-10T12:12:32.374Z,99.99
2019-02-10T12:13:32.389Z,99.99
2019-02-10T12:14:32.405Z,99.99
2019-02-10T12:17:32.450Z,99.99
2019-02-10T12:18:47.133Z,99.99
2019-02-10T12:19:32.485Z,99.99
2019-02-10T12:20:32.499Z,99.99
2019-02-10T12:21:32.512Z,99.99
2019-02-10T12:22:32.536Z,99.99
2019-02-10T12:23:32.545Z,99.99
2019-02-10T12:24:32.562Z,99.99
2019-02-10T12:25:32.576Z,99.99
2019-02-10T12:26:32.591Z,99.99
2019-02-10T12:27:32.606Z,99.99
2019-02-10T12:28:32.623Z,99.99
2019-02-10T12:31:32.684Z,99.99
2019-02-10T12:32:32.684Z,99.99
2019-02-10T12:33:32.699Z,99.99
2019-02-10T12:34:32.714Z,99.99
2019-02-10T12:35:32.729Z,99.99
2019-02-10T12:36:32.746Z,99.99
2019-02-10T12:38:32.781Z,99.99
2019-02-10T12:39:32.793Z,99.99
2019-02-10T12:40:32.807Z,99.99
2019-02-10T12:41:32.836Z,99.99
2019-02-10T12:42:32.838Z,99.99
2019-02-10T12:43:32.854Z,99.99
2019-02-10T12:44:32.871Z,99.99
2019-02-10T12:45:32.885Z,99.99
2019-02-10T12:46:32.899Z,99.99
2019-02-10T12:47:32.927Z,99.99
2019-02-10T12:48:32.931Z,99.99
2019-02-10T12:49:32.992Z,99.99
2019-02-10T12:50:47.625Z,99.99
2019-02-10T12:51:32.981Z,99.99
2019-02-10T12:52:32.994Z,99.99
2019-02-10T12:53:33.010Z,99.99
2019-02-10T12:54:33.026Z,99.99
2019-02-10T12:55:33.041Z,99.99
2019-02-10T12:56:33.057Z,99.99
2019-02-10T12:57:33.071Z,99.99
2019-02-10T12:58:33.087Z,99.99
2019-02-10T13:00:33.118Z,99.99
2019-02-10T13:01:33.135Z,99.99
2019-02-10T13:02:33.150Z,99.99
2019-02-10T13:03:33.169Z,99.99
2019-02-10T13:04:33.191Z,99.99
2019-02-10T13:05:33.197Z,99.99
2019-02-10T13:06:47.877Z,99.99
2019-02-10T13:07:33.229Z,99.99
2019-02-10T13:08:33.251Z,99.99
2019-02-10T13:09:33.264Z,99.99
2019-02-10T13:10:33.277Z,99.99
2019-02-10T13:11:33.292Z,99.99
2019-02-10T13:12:33.308Z,99.99
2019-02-10T13:13:33.323Z,99.99
2019-02-10T13:14:33.341Z,99.99
2019-02-10T13:16:33.371Z,99.99
2019-02-10T13:17:33.391Z,99.99
2019-02-10T13:18:33.404Z,99.99
2019-02-10T13:19:33.416Z,99.99
2019-02-10T13:20:33.434Z,99.99
2019-02-10T13:21:33.449Z,99.99
2019-02-10T13:22:48.129Z,99.99
2019-02-10T13:23:33.480Z,99.99
2019-02-10T13:24:33.498Z,99.99
2019-02-10T13:25:33.512Z,99.99
2019-02-10T13:26:33.529Z,99.99
2019-02-10T13:27:33.543Z,99.99
2019-02-10T13:28:33.560Z,99.99
2019-02-10T13:29:33.577Z,99.99
2019-02-10T13:30:33.911Z,99.99
2019-02-10T13:31:33.607Z,99.99
2019-02-10T13:32:33.626Z,99.99
2019-02-10T13:33:33.639Z,99.99
2019-02-10T13:34:33.675Z,99.99
2019-02-10T13:36:33.691Z,99.99
2019-02-10T13:37:33.702Z,99.99
2019-02-10T13:38:48.382Z,99.99
2019-02-10T13:39:33.737Z,99.99
2019-02-10T13:40:35.142Z,99.99
2019-02-10T13:41:33.772Z,99.99
2019-02-10T13:42:33.783Z,99.99
2019-02-10T13:43:36.122Z,99.99
2019-02-10T13:44:33.814Z,99.99